createdAt,value
2022-08-21T00:03:19.480Z,36.22
2022-08-21T00:10:21.911Z,35.33
2022-08-21T00:17:25.444Z,32.58
2022-08-21T00:24:27.851Z,29.67
2022-08-21T00:31:32.339Z,35.42
2022-08-21T00:38:36.195Z,15.98
2022-08-21T00:45:38.395Z,36.78
2022-08-21T00:52:40.712Z,47.72
2022-08-21T00:59:44.756Z,54.13
2022-08-21T01:06:47.112Z,54.95
2022-08-21T01:13:50.123Z,51.45
2022-08-21T01:21:11.615Z,49.28
2022-08-21T01:28:15.151Z,46.83
2022-08-21T01:35:18.222Z,47.10
2022-08-21T01:42:21.980Z,48.03
2022-08-21T01:49:24.253Z,50.55
2022-08-21T01:56:28.962Z,55.78
2022-08-21T02:03:36.119Z,60.80
2022-08-21T02:10:38.653Z,1999.90
2022-08-21T02:17:41.808Z,1999.90
2022-08-21T02:24:53.671Z,1999.90
2022-08-21T02:31:57.120Z,1999.90
2022-08-21T02:38:59.394Z,1999.90
2022-08-21T02:46:03.640Z,1999.90
2022-08-21T02:53:06.927Z,1999.90
2022-08-21T03:00:11.766Z,1999.90
2022-08-21T03:07:16.283Z,1999.90
2022-08-21T03:14:18.560Z,1999.90
2022-08-21T03:21:20.788Z,1999.90
2022-08-21T03:28:24.414Z,1999.90
2022-08-21T03:35:26.817Z,1999.90
2022-08-21T03:42:29.029Z,39.83
2022-08-21T03:49:32.983Z,40.15
2022-08-21T03:56:35.218Z,39.03
2022-08-21T04:03:39.265Z,38.90
2022-08-21T04:10:42.849Z,41.40
2022-08-21T04:17:45.261Z,40.00
2022-08-21T04:24:47.477Z,37.25
2022-08-21T04:31:53.113Z,38.55
2022-08-21T04:38:55.403Z,39.33
2022-08-21T04:46:01.293Z,1999.90
2022-08-21T04:53:05.124Z,1999.90
2022-08-21T05:00:13.658Z,1999.90
2022-08-21T05:07:41.564Z,1999.90
2022-08-21T05:14:46.265Z,1999.90
2022-08-21T05:21:48.974Z,1999.90
2022-08-21T05:28:51.225Z,1999.90
2022-08-21T05:35:56.673Z,1999.90
2022-08-21T05:43:00.009Z,1999.90
2022-08-21T05:50:04.746Z,1999.90
2022-08-21T05:57:09.417Z,1999.90
2022-08-21T06:04:11.678Z,1999.90
2022-08-21T06:11:13.953Z,1999.90
2022-08-21T06:18:17.529Z,1999.90
2022-08-21T06:25:20.337Z,1999.90
2022-08-21T06:32:22.608Z,1999.90
2022-08-21T06:39:30.657Z,1999.90
2022-08-21T06:46:38.213Z,1999.90
2022-08-21T06:53:40.494Z,1999.90
2022-08-21T07:00:45.173Z,1999.90
2022-08-21T07:07:47.638Z,151.45
2022-08-21T07:14:49.875Z,476.63
2022-08-21T07:21:58.732Z,1999.90
2022-08-21T07:29:00.987Z,1999.90
2022-08-21T07:36:03.759Z,1512.70
2022-08-21T07:43:07.377Z,19.25
2022-08-21T07:50:12.440Z,1999.90
2022-08-21T07:57:14.871Z,1999.90
2022-08-21T11:43:24.632Z,5.10
2022-08-21T12:08:47.302Z,4.22
2022-08-21T12:51:43.185Z,4.20
2022-08-21T12:58:56.038Z,3.95
2022-08-21T13:05:59.011Z,4.05
2022-08-21T13:13:03.025Z,3.80
2022-08-21T13:20:25.879Z,5.85
2022-08-21T13:27:29.895Z,7.13
2022-08-21T13:34:35.605Z,4.00
2022-08-21T13:41:39.481Z,3.40
2022-08-21T13:48:42.430Z,3.83
2022-08-21T13:55:44.693Z,5.47
2022-08-21T14:02:51.750Z,12.07
2022-08-21T14:09:53.988Z,5.97
2022-08-21T14:17:00.148Z,5.70
2022-08-21T14:24:25.341Z,4.22
2022-08-21T14:31:30.486Z,5.82
2022-08-21T14:38:33.453Z,15.32
2022-08-21T14:45:37.541Z,3.25
2022-08-21T14:52:40.491Z,4.97
2022-08-21T14:59:42.751Z,4.90
2022-08-21T15:06:44.964Z,4.35
2022-08-21T15:13:47.649Z,3.85
2022-08-21T15:20:50.114Z,3.58
2022-08-21T15:27:52.305Z,4.25
2022-08-21T15:34:54.704Z,5.97
2022-08-21T15:41:57.145Z,3.10
2022-08-21T15:49:00.069Z,5.43
2022-08-21T15:56:02.561Z,2.65
2022-08-21T16:03:05.534Z,3.33
2022-08-21T16:10:08.003Z,2.72
2022-08-21T16:17:12.526Z,5.70
2022-08-21T16:24:16.752Z,3.50
2022-08-21T16:31:20.349Z,3.40
2022-08-21T16:47:52.313Z,6.20
2022-08-21T16:54:54.679Z,3.30
2022-08-21T17:01:57.174Z,4.10
2022-08-21T17:08:59.439Z,2.88
2022-08-21T17:16:01.653Z,4.13
2022-08-21T17:23:03.893Z,4.40
2022-08-21T17:30:06.620Z,4.55
2022-08-21T17:37:08.864Z,3.97
2022-08-21T17:44:14.280Z,4.55
2022-08-21T17:51:20.487Z,6.20
2022-08-21T17:58:22.727Z,5.93
2022-08-21T18:05:24.978Z,5.38
2022-08-21T18:12:27.235Z,5.20
2022-08-21T18:53:23.937Z,3.95
2022-08-21T19:14:19.078Z,6.00
2022-08-21T19:21:25.004Z,7.90
2022-08-21T19:28:38.776Z,4.53
2022-08-21T19:35:41.118Z,5.35
2022-08-21T19:42:43.433Z,5.25
2022-08-21T19:49:52.066Z,4.43
2022-08-21T19:56:55.376Z,3.53
2022-08-21T20:03:57.978Z,4.75
2022-08-21T20:11:04.124Z,4.55
2022-08-21T20:18:06.968Z,7.28
2022-08-21T20:25:11.356Z,5.75
2022-08-21T20:32:16.784Z,6.38
2022-08-21T20:39:19.160Z,3.97
2022-08-21T20:46:26.997Z,5.63
2022-08-21T20:53:48.806Z,4.57
2022-08-21T21:00:51.966Z,3.90
2022-08-21T21:08:09.497Z,5.68
2022-08-21T21:15:23.455Z,4.33
2022-08-21T21:22:36.937Z,5.05
2022-08-21T21:29:44.632Z,3.92
2022-08-21T21:36:56.769Z,4.82
2022-08-21T21:44:01.813Z,4.78
2022-08-21T21:51:40.325Z,4.50
2022-08-21T22:06:45.088Z,4.50
2022-08-21T22:14:06.265Z,4.22
2022-08-21T22:21:12.809Z,4.25
2022-08-21T22:28:25.435Z,6.05
2022-08-21T22:35:31.641Z,5.63
2022-08-21T22:42:34.026Z,7.25
2022-08-21T22:49:44.105Z,6.93
2022-08-21T22:56:46.441Z,3.85
2022-08-21T23:03:57.386Z,6.03
2022-08-21T23:11:02.855Z,5.95
2022-08-21T23:18:32.871Z,4.03
2022-08-21T23:25:41.361Z,4.55
2022-08-21T23:33:07.314Z,3.50
2022-08-21T23:40:27.917Z,3.83
2022-08-21T23:47:51.245Z,4.35
2022-08-21T23:54:56.363Z,4.88
